Queensborough, Washington
Current Conditions -  °F | °C
As of 12:53 PM on Saturday 25 Oct 2014 (Local Time) from KPAE Reporting Station
Overcast Overcast  
Wind Chill: 58°   Ceiling: 9000
Heat Index: 58°   Visibility: 10mi
Dew Point: 51°   Wind: 5mph
Humidity: 78%   Direction: 60°ENE
Pressure: 29.36"   Gusts: NA
Location:  47.7933°N, 122.207°W
Report Text: KPAE 251953Z 06004KT 10SM OVC090 14/11 A2936 RMK AO2 RAB19E29 SLP943 P0000 T01440106
Loading
Personal Weather Stations






























Interactive Weather Map
Tropical Storm Tracking
New forecast layout! Learn more

10-Day Weather Forecast

Advertisements
Track Severe Weather on mobile